首页
METAR-TAF:

METAR-TAF

机场 :

楚克國際機場

維諾, 密克罗尼西亚群岛

纬度: 07-28N, 经度: 151-51E, 海拔: 3米

当前天气观测

该预报发布于1小时和1分钟前的23:50 UTC
风速9节,风向东转东南,有时为19节阵风
温度 28°C
湿度 84%
气压 1009 hPa
能見度: 24.1公里
少量云层高于1400英尺, 积雨云.
多云层高于12000英尺
阴天层高于28000英尺

METAR: PTKK 212350Z 11009G19KT 15SM FEW014CB BKN120 OVC280 28/25 A2979 RMK CB SE MOV W SLP091 8/328 T02790247 10281 20247 52012

时间: 10:51 (00:51 UTC)

预报

该预报发布于1小时和11分钟前的23:40 UTC
预报有效从22日的 00点(UTC)到 22日的 24点(UTC)
风速14节,风向南转南东
能見度: 10公里
散云层高于1600英尺
散云层高于4000英尺
阴天层高于10000英尺
附近有阵雨

TAF: PTKK 212340Z 2200/2224 15014KT P6SM VCSH SCT016 SCT040 OVC100

超过4000个机场的气象观测和天气预报(METAR&TAF报告)。

可查询的气象台以黄色和红色小点在地图上表示。

将鼠标移到小点上方,可查看气象台名称。

然后点击查看天气观测和预报。

如需切换地图:点击带黑十字的绿色按钮放大地图;点击带横线的绿色按钮缩小地图;或者点击绿色箭头查看邻近地区的地图。


METAR-TAF: